Time;durP1;ratioP1;P1;durP2;ratioP2;P2;SDS_P1;SDS_P2;PMS_P1;PMS_P2;Temp;Humidity;BMP_temperature;BMP_pressure;BME280_temperature;BME280_humidity;BME280_pressure;Samples;Min_cycle;Max_cycle;Signal;HPM_P1;HPM_P2
2022/08/01 00:01:54;;;;;;;14.53;11.80;;;18.60;1.00;;;;;;5035317;28;20176;-70
2022/08/01 00:04:20;;;;;;;14.30;11.57;;;18.70;1.00;;;;;;5035361;28;20259;-73
2022/08/01 00:06:45;;;;;;;14.60;12.80;;;18.70;1.00;;;;;;5034367;28;20171;-73
2022/08/01 00:09:11;;;;;;;14.07;11.37;;;18.70;1.00;;;;;;5034893;28;20207;-73
2022/08/01 00:11:37;;;;;;;15.23;12.43;;;18.70;1.00;;;;;;5036175;28;20166;-72
2022/08/01 00:14:03;;;;;;;14.80;12.03;;;18.70;1.00;;;;;;5034825;28;20173;-73
2022/08/01 00:16:29;;;;;;;18.17;11.97;;;18.70;1.00;;;;;;5034607;28;20242;-74
2022/08/01 00:18:55;;;;;;;21.00;13.43;;;18.80;1.00;;;;;;5034967;28;20244;-74
2022/08/01 00:21:21;;;;;;;14.43;12.73;;;18.80;1.00;;;;;;5036197;28;20699;-75
2022/08/01 00:23:46;;;;;;;20.37;13.80;;;18.80;2.50;;;;;;5034700;28;20413;-70
2022/08/01 00:26:13;;;;;;;18.27;13.53;;;18.80;23.70;;;;;;5035243;28;20909;-70
2022/08/01 00:28:39;;;;;;;19.77;14.57;;;18.80;17.70;;;;;;5035789;28;20207;-74
2022/08/01 00:31:05;;;;;;;17.67;14.30;;;18.70;19.10;;;;;;5035809;28;20399;-70
2022/08/01 00:33:30;;;;;;;22.27;15.30;;;18.70;18.30;;;;;;5034208;28;20406;-71
2022/08/01 00:35:56;;;;;;;20.63;14.80;;;18.60;12.30;;;;;;5034329;28;20242;-69
2022/08/01 00:38:22;;;;;;;18.47;15.83;;;18.50;1.00;;;;;;5035040;28;20637;-71
2022/08/01 00:40:48;;;;;;;23.33;15.57;;;18.50;23.90;;;;;;5035645;28;20156;-74
2022/08/01 00:43:14;;;;;;;22.13;15.83;;;18.50;38.20;;;;;;5035730;28;20198;-69
2022/08/01 00:45:40;;;;;;;22.03;16.80;;;18.50;50.70;;;;;;5035553;28;20223;-70
2022/08/01 00:48:06;;;;;;;25.83;16.57;;;18.40;86.70;;;;;;5035030;28;20457;-70
2022/08/01 00:50:32;;;;;;;21.70;16.40;;;18.40;93.80;;;;;;5035477;28;20214;-70
2022/08/01 00:52:59;;;;;;;23.07;17.03;;;18.50;99.90;;;;;;5034628;28;20174;-70
2022/08/01 00:55:26;;;;;;;21.30;14.83;;;18.60;99.90;;;;;;5035468;28;20209;-73
2022/08/01 00:57:52;;;;;;;27.20;15.63;;;18.50;99.60;;;;;;5034765;28;20498;-74
2022/08/01 01:00:18;;;;;;;21.40;15.53;;;18.60;99.90;;;;;;5035283;28;20510;-74
2022/08/01 01:02:44;;;;;;;20.93;15.30;;;18.60;99.90;;;;;;5034994;28;20552;-75
2022/08/01 01:05:10;;;;;;;21.63;14.40;;;18.60;99.90;;;;;;5035271;28;20399;-70
2022/08/01 01:08:03;;;;;;;24.80;16.27;;;18.60;99.90;;;;;;5034300;28;20563;-74
2022/08/01 01:10:33;;;;;;;25.37;15.33;;;18.60;99.90;;;;;;5035054;28;20402;-70
2022/08/01 01:13:10;;;;;;;23.17;13.60;;;18.60;99.90;;;;;;5034174;28;20414;-74
2022/08/01 01:16:02;;;;;;;21.97;15.13;;;18.60;99.90;;;;;;5033989;28;20402;-74
2022/08/01 01:18:40;;;;;;;28.23;17.37;;;18.60;99.90;;;;;;5033524;28;20438;-73
2022/08/01 01:21:11;;;;;;;23.67;15.77;;;18.60;99.90;;;;;;5034845;28;20400;-74
2022/08/01 01:23:41;;;;;;;21.80;14.80;;;18.60;99.90;;;;;;5034848;28;20461;-75
2022/08/01 01:26:12;;;;;;;25.20;16.50;;;18.60;99.90;;;;;;5034135;28;20407;-70
2022/08/01 01:29:08;;;;;;;25.73;15.80;;;18.50;99.90;;;;;;5033136;28;20546;-71
2022/08/01 01:31:43;;;;;;;24.23;14.67;;;18.50;99.90;;;;;;5034499;28;20425;-74
2022/08/01 01:34:10;;;;;;;24.20;15.37;;;18.50;99.90;;;;;;5034602;28;20414;-74
2022/08/01 01:36:39;;;;;;;25.30;15.97;;;18.50;99.90;;;;;;5032614;28;20512;-71
2022/08/01 01:39:06;;;;;;;28.27;15.40;;;18.50;99.90;;;;;;5034423;28;20851;-74
2022/08/01 01:41:35;;;;;;;27.13;17.40;;;18.50;99.90;;;;;;5033295;28;20512;-73
2022/08/01 01:44:04;;;;;;;24.07;15.00;;;18.50;99.90;;;;;;5034555;28;20448;-73
2022/08/01 01:46:31;;;;;;;25.50;15.87;;;18.50;99.90;;;;;;5032612;28;20411;-70
2022/08/01 01:48:59;;;;;;;24.90;15.67;;;18.50;99.90;;;;;;5033306;28;20500;-70
2022/08/01 01:51:27;;;;;;;29.40;14.70;;;18.50;99.90;;;;;;5034245;28;20430;-71
2022/08/01 01:53:55;;;;;;;26.20;16.70;;;18.50;99.90;;;;;;5034370;28;20724;-74
2022/08/01 01:56:22;;;;;;;23.87;16.80;;;18.50;99.90;;;;;;5033992;28;20402;-74
2022/08/01 01:58:56;;;;;;;26.67;16.00;;;18.50;99.90;;;;;;5034078;28;20906;-73
2022/08/01 02:01:29;;;;;;;27.10;14.80;;;18.50;99.90;;;;;;5034220;28;20390;-72
2022/08/01 02:03:56;;;;;;;19.93;14.47;;;18.40;99.90;;;;;;5034179;28;20402;-74
2022/08/01 02:06:25;;;;;;;24.13;15.13;;;18.40;99.90;;;;;;5033057;28;20403;-74
2022/08/01 02:08:52;;;;;;;22.87;14.07;;;18.40;99.90;;;;;;5033182;28;20458;-73
2022/08/01 02:11:21;;;;;;;22.70;15.17;;;18.50;99.90;;;;;;5032810;28;20403;-74
2022/08/01 02:13:58;;;;;;;25.37;16.33;;;18.50;99.90;;;;;;5033313;28;20825;-75
2022/08/01 02:16:35;;;;;;;22.70;15.07;;;18.50;99.90;;;;;;5033187;28;20410;-74
2022/08/01 02:19:01;;;;;;;33.73;13.90;;;18.50;99.90;;;;;;5032667;28;20461;-70
2022/08/01 02:21:38;;;;;;;19.20;13.97;;;18.50;99.90;;;;;;5033722;28;20413;-70
2022/08/01 02:24:13;;;;;;;32.83;16.00;;;18.50;99.90;;;;;;5033686;28;20425;-70
2022/08/01 02:26:43;;;;;;;22.23;14.00;;;18.50;99.90;;;;;;5031270;28;20421;-73
2022/08/01 02:29:13;;;;;;;22.50;13.87;;;18.50;99.90;;;;;;5033472;28;20465;-73
2022/08/01 02:31:44;;;;;;;29.50;14.77;;;18.50;99.90;;;;;;5033558;28;20406;-74
2022/08/01 02:34:16;;;;;;;24.93;14.63;;;18.50;99.90;;;;;;5033585;28;20399;-74
2022/08/01 02:36:44;;;;;;;25.27;14.37;;;18.40;99.90;;;;;;5032062;28;20733;-73
2022/08/01 02:39:13;;;;;;;24.73;15.83;;;18.50;99.90;;;;;;5032093;28;20426;-73
2022/08/01 02:41:42;;;;;;;25.23;13.40;;;18.40;99.90;;;;;;5033211;28;20422;-69
2022/08/01 02:44:10;;;;;;;20.10;13.50;;;18.40;99.90;;;;;;5032788;28;20757;-71
2022/08/01 02:46:45;;;;;;;20.93;15.00;;;18.40;99.90;;;;;;5031844;28;20425;-70
2022/08/01 02:49:12;;;;;;;23.23;15.00;;;18.30;99.90;;;;;;5032133;28;20476;-70
2022/08/01 02:51:40;;;;;;;21.97;15.17;;;18.30;99.90;;;;;;5033246;28;20399;-71
2022/08/01 02:54:08;;;;;;;19.13;13.73;;;18.30;99.90;;;;;;5032025;28;20905;-73
2022/08/01 02:56:35;;;;;;;21.07;14.20;;;18.30;99.90;;;;;;5032742;28;20399;-74
2022/08/01 02:59:14;;;;;;;22.17;14.30;;;18.30;99.90;;;;;;5031374;28;20430;-70
2022/08/01 03:01:40;;;;;;;21.10;14.27;;;18.30;99.90;;;;;;5033041;28;20434;-69
2022/08/01 03:04:07;;;;;;;19.87;13.87;;;18.40;99.90;;;;;;5033205;28;20435;-70
2022/08/01 03:06:34;;;;;;;22.40;14.30;;;18.40;99.90;;;;;;5032516;28;20412;-69
2022/08/01 03:09:02;;;;;;;18.50;14.07;;;18.30;99.90;;;;;;5032904;28;20454;-73
2022/08/01 03:11:30;;;;;;;22.60;14.50;;;18.40;99.90;;;;;;5031683;28;20906;-73
2022/08/01 03:13:57;;;;;;;16.87;13.13;;;18.30;99.90;;;;;;5033121;28;20949;-69
2022/08/01 03:16:26;;;;;;;19.63;14.57;;;18.40;99.90;;;;;;5031916;28;20809;-70
2022/08/01 03:18:54;;;;;;;20.03;13.60;;;18.40;99.90;;;;;;5032294;28;20425;-69
2022/08/01 03:21:22;;;;;;;19.67;13.27;;;18.40;99.90;;;;;;5033104;28;20417;-69
2022/08/01 03:23:50;;;;;;;15.80;12.57;;;18.40;99.90;;;;;;5031856;28;20418;-69
2022/08/01 03:26:17;;;;;;;20.40;13.27;;;18.40;99.90;;;;;;5036194;28;20413;-69
2022/08/01 03:28:45;;;;;;;19.70;14.67;;;18.40;99.90;;;;;;5037009;28;20518;-71
2022/08/01 03:31:13;;;;;;;18.87;12.60;;;18.30;99.90;;;;;;5036025;28;20445;-74
2022/08/01 03:33:39;;;;;;;19.87;13.10;;;18.30;99.90;;;;;;5035846;28;20468;-73
2022/08/01 03:36:09;;;;;;;25.33;14.20;;;18.30;99.90;;;;;;5035980;28;20898;-71
2022/08/01 03:38:38;;;;;;;21.40;12.50;;;18.30;99.90;;;;;;5036022;28;20663;-69
2022/08/01 03:41:15;;;;;;;17.23;12.83;;;18.30;99.90;;;;;;5036742;28;20918;-74
2022/08/01 03:43:46;;;;;;;18.63;12.70;;;18.30;99.90;;;;;;5036654;28;20455;-69
2022/08/01 03:46:20;;;;;;;18.40;13.80;;;18.20;99.90;;;;;;5035058;28;20925;-69
2022/08/01 03:48:48;;;;;;;16.27;11.80;;;18.20;99.90;;;;;;5035484;28;20454;-70
2022/08/01 03:51:15;;;;;;;18.73;12.83;;;18.20;99.90;;;;;;5035627;28;20410;-74
2022/08/01 03:53:42;;;;;;;15.63;11.53;;;18.20;99.90;;;;;;5035552;28;20824;-69
2022/08/01 03:56:09;;;;;;;20.53;13.07;;;18.30;99.90;;;;;;5034960;28;20887;-69
2022/08/01 03:58:39;;;;;;;20.60;11.40;;;18.30;99.90;;;;;;5035178;28;20437;-74
2022/08/01 04:01:06;;;;;;;15.03;10.53;;;18.30;99.90;;;;;;5036332;28;20480;-69
2022/08/01 04:03:33;;;;;;;13.60;9.50;;;18.20;99.90;;;;;;5036376;28;20402;-74
2022/08/01 04:05:59;;;;;;;12.93;10.50;;;18.20;99.90;;;;;;5035798;28;20468;-73
2022/08/01 04:08:34;;;;;;;11.10;9.90;;;18.10;99.90;;;;;;5035816;28;20970;-69
2022/08/01 04:11:00;;;;;;;16.80;10.50;;;18.10;99.90;;;;;;5036224;28;20159;-75
2022/08/01 04:13:26;;;;;;;14.57;10.17;;;18.10;99.90;;;;;;5035287;28;20897;-71
2022/08/01 04:15:52;;;;;;;12.83;9.97;;;18.10;99.90;;;;;;5034929;28;20414;-73
2022/08/01 04:18:17;;;;;;;9.53;8.53;;;18.10;99.90;;;;;;5035634;28;20202;-69
2022/08/01 04:20:43;;;;;;;15.47;7.80;;;18.10;99.90;;;;;;5036344;28;20167;-70
2022/08/01 04:23:10;;;;;;;14.30;8.70;;;18.10;99.90;;;;;;5036084;28;20172;-74
2022/08/01 04:25:39;;;;;;;9.73;8.00;;;18.10;99.90;;;;;;5035924;28;20630;-74
2022/08/01 04:28:10;;;;;;;15.80;9.57;;;18.10;99.90;;;;;;5035021;28;20433;-70
2022/08/01 04:30:39;;;;;;;10.00;7.60;;;18.10;99.90;;;;;;5035498;28;20403;-70
2022/08/01 04:33:07;;;;;;;10.77;8.20;;;18.10;99.90;;;;;;5035410;28;20410;-68
2022/08/01 04:35:36;;;;;;;7.83;7.13;;;18.20;99.90;;;;;;5035652;28;20493;-73
2022/08/01 04:38:03;;;;;;;12.93;7.67;;;18.20;99.90;;;;;;5034462;28;20429;-70
2022/08/01 04:40:30;;;;;;;11.33;6.77;;;18.20;99.90;;;;;;5035691;28;20442;-70
2022/08/01 04:42:56;;;;;;;10.80;7.80;;;18.20;99.90;;;;;;5035772;28;20401;-70
2022/08/01 04:45:23;;;;;;;8.67;7.40;;;18.20;99.90;;;;;;5035963;28;20485;-72
2022/08/01 04:47:49;;;;;;;7.73;6.83;;;18.10;99.90;;;;;;5033854;28;20191;-69
2022/08/01 04:50:15;;;;;;;9.37;6.87;;;18.10;99.90;;;;;;5034819;28;20966;-74
2022/08/01 04:52:41;;;;;;;7.50;6.50;;;18.10;99.90;;;;;;5035123;28;20440;-73
2022/08/01 04:55:08;;;;;;;9.10;7.00;;;18.10;99.90;;;;;;5034176;28;20543;-68
2022/08/01 04:57:40;;;;;;;9.53;7.20;;;18.10;99.90;;;;;;5034662;28;20432;-75
2022/08/01 05:00:08;;;;;;;10.83;7.00;;;18.10;99.90;;;;;;5035343;28;20415;-75
2022/08/01 05:02:33;;;;;;;5.90;5.30;;;18.10;99.90;;;;;;5035358;28;20428;-75
2022/08/01 05:04:59;;;;;;;7.13;6.10;;;18.20;99.90;;;;;;5035262;28;20906;-69
2022/08/01 05:07:25;;;;;;;7.60;6.53;;;18.20;99.90;;;;;;5033052;28;20199;-73
2022/08/01 05:09:51;;;;;;;7.77;6.40;;;18.20;99.90;;;;;;5035297;28;20198;-68
2022/08/01 05:12:17;;;;;;;7.03;5.90;;;18.30;99.90;;;;;;5032972;28;20171;-74
2022/08/01 05:14:42;;;;;;;7.53;6.60;;;18.20;99.90;;;;;;5033881;28;20646;-73
2022/08/01 05:17:09;;;;;;;11.20;7.67;;;18.20;99.90;;;;;;5033298;28;20523;-74
2022/08/01 05:19:36;;;;;;;8.10;6.80;;;18.20;99.90;;;;;;5034956;28;20642;-68
2022/08/01 05:22:05;;;;;;;9.50;6.33;;;18.20;99.90;;;;;;5033685;28;20498;-69
2022/08/01 05:24:32;;;;;;;8.87;6.23;;;18.20;99.90;;;;;;5034846;28;20407;-73
2022/08/01 05:26:58;;;;;;;7.20;6.50;;;18.30;99.90;;;;;;5034060;28;20493;-68
2022/08/01 05:29:25;;;;;;;13.40;6.90;;;18.30;99.90;;;;;;5034694;28;20450;-68
2022/08/01 05:31:51;;;;;;;7.60;6.60;;;18.30;99.90;;;;;;5033973;28;20755;-74
2022/08/01 05:34:18;;;;;;;8.23;7.43;;;18.30;99.90;;;;;;5033273;28;20852;-69
2022/08/01 05:36:43;;;;;;;10.23;7.23;;;18.30;99.90;;;;;;5033895;28;20414;-70
2022/08/01 05:39:10;;;;;;;7.60;6.90;;;18.30;99.90;;;;;;5033537;28;20930;-74
2022/08/01 05:41:36;;;;;;;12.13;7.83;;;18.30;99.90;;;;;;5033515;28;20207;-68
2022/08/01 05:44:03;;;;;;;8.90;7.70;;;18.30;99.90;;;;;;5034599;28;20402;-69
2022/08/01 05:46:30;;;;;;;11.23;8.80;;;18.30;99.90;;;;;;5033025;28;20770;-74
2022/08/01 05:48:56;;;;;;;12.83;8.30;;;18.30;99.90;;;;;;5031505;28;20484;-69
2022/08/01 05:51:23;;;;;;;10.43;7.07;;;18.40;99.90;;;;;;5033949;28;20398;-69
2022/08/01 05:53:49;;;;;;;8.67;7.60;;;18.40;99.90;;;;;;5034285;28;20407;-75
2022/08/01 05:56:14;;;;;;;9.47;7.17;;;18.40;99.90;;;;;;5033550;28;20406;-69
2022/08/01 05:58:40;;;;;;;8.33;7.57;;;18.40;99.90;;;;;;5034187;28;20548;-73
2022/08/01 06:01:06;;;;;;;10.67;7.30;;;18.40;99.90;;;;;;5034111;28;20195;-74
2022/08/01 06:03:33;;;;;;;8.50;7.27;;;18.40;99.90;;;;;;5032823;28;20651;-69
2022/08/01 06:05:59;;;;;;;7.30;6.60;;;18.40;99.90;;;;;;5033981;28;20555;-73
2022/08/01 06:08:25;;;;;;;7.33;6.50;;;18.40;99.90;;;;;;5032672;28;20492;-69
2022/08/01 06:10:51;;;;;;;11.90;6.00;;;18.40;99.90;;;;;;5033951;28;20406;-74
2022/08/01 06:13:18;;;;;;;6.50;5.90;;;18.40;99.90;;;;;;5034032;28;20166;-74
2022/08/01 06:15:44;;;;;;;6.97;6.23;;;18.40;99.90;;;;;;5033744;28;20221;-70
2022/08/01 06:18:10;;;;;;;8.50;5.70;;;18.40;99.90;;;;;;5032170;28;20833;-74
2022/08/01 06:20:35;;;;;;;5.43;5.00;;;18.40;99.90;;;;;;5032668;28;20524;-69
2022/08/01 06:23:01;;;;;;;5.67;4.20;;;18.40;99.90;;;;;;5033652;28;20222;-73
2022/08/01 06:25:26;;;;;;;4.57;3.90;;;18.40;99.90;;;;;;5033787;28;20206;-74
2022/08/01 06:27:52;;;;;;;5.03;4.47;;;18.50;99.90;;;;;;5032286;28;20191;-69
2022/08/01 06:30:18;;;;;;;5.57;4.80;;;18.50;99.90;;;;;;5033646;28;20683;-69
2022/08/01 06:32:44;;;;;;;4.20;3.80;;;18.60;99.90;;;;;;5032360;28;20206;-70
2022/08/01 06:35:10;;;;;;;5.00;4.37;;;18.60;99.90;;;;;;5033503;28;20426;-74
2022/08/01 06:37:36;;;;;;;6.27;4.27;;;18.50;99.90;;;;;;5032781;28;20199;-74
2022/08/01 06:40:07;;;;;;;5.23;4.30;;;18.50;99.90;;;;;;5033498;28;20246;-74
2022/08/01 06:42:35;;;;;;;4.70;4.37;;;18.50;99.90;;;;;;5033463;28;20175;-74
2022/08/01 06:45:05;;;;;;;5.03;3.87;;;18.50;99.90;;;;;;5033302;28;20454;-71
2022/08/01 06:47:30;;;;;;;5.60;4.70;;;18.50;99.90;;;;;;5030674;28;20541;-74
2022/08/01 06:49:56;;;;;;;5.13;4.70;;;18.40;99.90;;;;;;5033316;28;20920;-69
2022/08/01 06:52:22;;;;;;;4.20;3.80;;;18.30;99.90;;;;;;5033244;28;20756;-69
2022/08/01 06:54:48;;;;;;;4.57;4.17;;;18.20;99.90;;;;;;5033285;28;20202;-75
2022/08/01 06:57:14;;;;;;;5.23;3.73;;;18.20;99.90;;;;;;5032481;28;20422;-70
2022/08/01 06:59:39;;;;;;;5.90;5.40;;;18.10;99.90;;;;;;5032877;28;20246;-69
2022/08/01 07:02:06;;;;;;;4.47;3.60;;;18.00;97.90;;;;;;5032173;28;20179;-69
2022/08/01 07:04:32;;;;;;;4.00;3.53;;;18.00;98.20;;;;;;5032454;28;20195;-75
2022/08/01 07:06:57;;;;;;;3.80;3.20;;;18.00;94.90;;;;;;5032441;28;20886;-74
2022/08/01 07:09:23;;;;;;;3.80;2.70;;;18.00;94.80;;;;;;5032841;28;20238;-74
2022/08/01 07:11:52;;;;;;;2.77;2.53;;;18.00;92.80;;;;;;5033165;28;20537;-69
2022/08/01 07:14:18;;;;;;;2.97;2.77;;;18.00;93.70;;;;;;5032988;28;20402;-73
2022/08/01 07:16:44;;;;;;;3.10;2.80;;;18.00;86.80;;;;;;5032439;28;20436;-69
2022/08/01 07:19:10;;;;;;;3.93;2.80;;;18.00;86.10;;;;;;5033025;28;20429;-69
2022/08/01 07:21:36;;;;;;;3.10;2.80;;;17.90;83.20;;;;;;5032316;28;20414;-73
2022/08/01 07:24:02;;;;;;;2.60;2.40;;;17.90;87.20;;;;;;5032733;28;20501;-74
2022/08/01 07:26:28;;;;;;;3.60;3.00;;;17.90;85.20;;;;;;5032296;28;20171;-74
2022/08/01 07:28:53;;;;;;;4.90;3.23;;;17.90;95.70;;;;;;5031439;28;20235;-68
2022/08/01 07:31:19;;;;;;;2.77;2.30;;;17.70;13.70;;;;;;5033030;28;20182;-68
2022/08/01 07:33:45;;;;;;;3.57;2.43;;;17.60;1.00;;;;;;5032834;28;20164;-74
2022/08/01 07:36:11;;;;;;;3.30;2.60;;;17.70;1.00;;;;;;5032157;28;20178;-74
2022/08/01 07:38:36;;;;;;;2.80;2.20;;;17.80;1.00;;;;;;5032863;28;20282;-67
2022/08/01 07:41:02;;;;;;;2.30;2.20;;;17.90;1.00;;;;;;5031727;28;20179;-68
2022/08/01 07:43:29;;;;;;;3.00;2.70;;;18.00;1.00;;;;;;5032681;28;20199;-74
2022/08/01 07:45:54;;;;;;;6.37;2.80;;;18.30;1.00;;;;;;5031328;28;20982;-69
2022/08/01 07:48:23;;;;;;;3.00;2.10;;;18.30;1.00;;;;;;5031117;28;20513;-74
2022/08/01 07:50:50;;;;;;;3.83;2.13;;;18.20;1.00;;;;;;5032739;28;20172;-68
2022/08/01 07:53:16;;;;;;;7.03;2.20;;;18.10;1.00;;;;;;5032864;28;20402;-68
2022/08/01 07:55:42;;;;;;;5.30;2.20;;;18.10;1.00;;;;;;5031625;28;20414;-68
2022/08/01 07:58:08;;;;;;;8.23;4.60;;;18.00;1.00;;;;;;5031202;28;20764;-74
2022/08/01 08:00:33;;;;;;;5.40;2.90;;;18.00;1.00;;;;;;5032359;28;20489;-74
2022/08/01 08:02:59;;;;;;;3.27;2.57;;;18.00;1.00;;;;;;5032701;28;20176;-68
2022/08/01 08:05:28;;;;;;;7.03;2.70;;;18.00;1.00;;;;;;5031285;28;20176;-68
2022/08/01 08:07:53;;;;;;;8.67;2.53;;;18.10;1.00;;;;;;5031829;28;20202;-74
2022/08/01 08:10:19;;;;;;;7.07;2.80;;;18.20;1.00;;;;;;5032494;28;20454;-74
2022/08/01 08:12:48;;;;;;;4.23;2.80;;;18.30;1.00;;;;;;5033978;28;20171;-74
2022/08/01 08:15:17;;;;;;;4.70;2.53;;;18.30;1.00;;;;;;5035746;28;20366;-75
2022/08/01 08:17:42;;;;;;;5.93;2.70;;;18.50;1.00;;;;;;5035258;28;20464;-68
2022/08/01 08:20:09;;;;;;;4.07;2.50;;;18.60;99.90;;;;;;5036021;28;20439;-74
2022/08/01 08:22:34;;;;;;;10.20;3.93;;;18.60;99.90;;;;;;5034839;28;20182;-67
2022/08/01 08:25:00;;;;;;;9.80;2.67;;;18.50;99.90;;;;;;5036023;28;20474;-75
2022/08/01 08:27:26;;;;;;;8.83;2.70;;;18.50;99.90;;;;;;5035371;28;20552;-75
2022/08/01 08:29:52;;;;;;;7.87;4.20;;;18.60;99.90;;;;;;5035915;28;20810;-75
2022/08/01 08:32:18;;;;;;;6.33;1.90;;;18.70;99.90;;;;;;5029363;28;20207;-68
2022/08/01 08:34:43;;;;;;;2.73;2.10;;;18.80;99.90;;;;;;5031258;28;20437;-69
2022/08/01 08:37:09;;;;;;;5.10;2.43;;;18.90;99.90;;;;;;5034751;28;20255;-76
2022/08/01 08:39:35;;;;;;;5.90;2.23;;;18.90;99.90;;;;;;5016185;28;20181;-70
2022/08/01 08:42:05;;;;;;;5.10;2.20;;;19.00;99.90;;;;;;5020315;28;21397;-71
2022/08/01 08:44:31;;;;;;;5.67;2.33;;;19.10;57.00;;;;;;5035539;28;20414;-69
2022/08/01 08:47:00;;;;;;;7.17;2.10;;;19.20;71.90;;;;;;5033218;28;20425;-70
2022/08/01 08:49:27;;;;;;;6.30;4.00;;;19.20;46.00;;;;;;5034839;28;20745;-70
2022/08/01 08:51:57;;;;;;;10.57;2.40;;;19.40;58.40;;;;;;5034497;28;20504;-70
2022/08/01 08:54:23;;;;;;;5.27;2.70;;;19.40;21.20;;;;;;5034089;28;20414;-70
2022/08/01 08:56:51;;;;;;;8.00;2.80;;;19.50;18.30;;;;;;5033276;28;20890;-76
2022/08/01 08:59:17;;;;;;;2.67;1.90;;;19.60;1.00;;;;;;5034061;28;20410;-76
2022/08/01 09:01:43;;;;;;;3.03;2.10;;;19.70;1.00;;;;;;5036172;28;20425;-76
2022/08/01 09:04:10;;;;;;;11.10;3.10;;;19.90;1.00;;;;;;5035261;28;20402;-77
2022/08/01 09:06:37;;;;;;;4.57;2.83;;;20.00;1.00;;;;;;5032428;28;20427;-71
2022/08/01 09:09:04;;;;;;;5.07;2.53;;;20.10;1.00;;;;;;5033453;28;20469;-76
2022/08/01 09:11:30;;;;;;;7.90;4.77;;;20.40;1.00;;;;;;5035147;28;20854;-76
2022/08/01 09:14:06;;;;;;;5.70;3.73;;;20.40;1.00;;;;;;5035002;28;20441;-70
2022/08/01 09:16:33;;;;;;;5.53;1.77;;;20.40;1.00;;;;;;5034035;28;20417;-76
2022/08/01 09:19:17;;;;;;;5.27;2.20;;;20.60;1.00;;;;;;5034840;28;20426;-71
2022/08/01 09:21:59;;;;;;;6.80;2.87;;;20.70;1.00;;;;;;5034837;28;20429;-76
2022/08/01 09:24:27;;;;;;;7.60;2.27;;;20.70;1.00;;;;;;5034707;28;20438;-71
2022/08/01 09:26:54;;;;;;;10.27;2.60;;;20.70;1.00;;;;;;5026359;28;20426;-72
2022/08/01 09:29:26;;;;;;;6.77;2.33;;;20.80;1.00;;;;;;5014881;28;20485;-76
2022/08/01 09:31:52;;;;;;;7.10;2.47;;;20.90;1.00;;;;;;5014777;28;20494;-76
2022/08/01 09:34:29;;;;;;;5.47;2.30;;;21.00;1.00;;;;;;5014685;28;20464;-71
2022/08/01 09:36:57;;;;;;;4.63;2.57;;;21.20;1.00;;;;;;5013906;28;20199;-77
2022/08/01 09:39:26;;;;;;;8.87;2.10;;;21.40;1.00;;;;;;5023696;28;20417;-71
2022/08/01 09:41:57;;;;;;;4.90;2.47;;;21.30;1.00;;;;;;5034288;28;20442;-71
2022/08/01 09:44:44;;;;;;;4.00;1.90;;;21.50;1.00;;;;;;5032973;28;20926;-71
2022/08/01 09:47:11;;;;;;;7.03;1.70;;;21.40;1.00;;;;;;5033127;28;20472;-70
2022/08/01 09:49:38;;;;;;;6.67;1.70;;;21.50;1.00;;;;;;5034385;28;20545;-69
2022/08/01 09:52:30;;;;;;;5.73;1.77;;;21.80;1.00;;;;;;5034313;28;20407;-78
2022/08/01 09:54:59;;;;;;;4.40;1.30;;;22.10;1.00;;;;;;5033157;28;20774;-78
2022/08/01 09:57:25;;;;;;;4.63;1.77;;;22.50;1.00;;;;;;5033313;28;20434;-77
2022/08/01 09:59:53;;;;;;;5.90;1.73;;;22.80;1.00;;;;;;5034346;28;20407;-76
2022/08/01 10:02:37;;;;;;;7.60;1.40;;;23.10;1.00;;;;;;5034211;28;20410;-70
2022/08/01 10:05:08;;;;;;;2.63;1.53;;;23.40;1.00;;;;;;5033650;28;20756;-77
2022/08/01 10:07:35;;;;;;;6.17;1.80;;;23.60;1.00;;;;;;5032958;28;20450;-69
2022/08/01 10:10:12;;;;;;;8.10;2.23;;;23.70;1.00;;;;;;5033902;28;20481;-68
2022/08/01 10:12:39;;;;;;;4.87;1.67;;;23.90;1.00;;;;;;5033838;28;20463;-70
2022/08/01 10:15:06;;;;;;;7.73;1.67;;;24.20;1.00;;;;;;5032995;28;20958;-68
2022/08/01 10:17:34;;;;;;;3.93;1.40;;;24.30;1.00;;;;;;5031948;28;20426;-69
2022/08/01 10:20:02;;;;;;;8.10;1.83;;;24.50;1.00;;;;;;5033835;28;20863;-77
2022/08/01 10:22:31;;;;;;;3.33;1.50;;;24.70;1.00;;;;;;5033976;28;20410;-78
2022/08/01 10:24:59;;;;;;;1.90;1.67;;;24.80;1.00;;;;;;5033125;28;20410;-77
2022/08/01 10:27:25;;;;;;;5.90;2.90;;;24.80;1.00;;;;;;5031651;28;20434;-77
2022/08/01 10:30:05;;;;;;;6.40;1.70;;;24.60;1.00;;;;;;5033765;28;20454;-71
2022/08/01 10:32:31;;;;;;;7.47;1.87;;;24.50;1.00;;;;;;5033727;28;20740;-70
2022/08/01 10:34:58;;;;;;;7.53;1.50;;;24.80;1.00;;;;;;5032910;28;20402;-70
2022/08/01 10:37:24;;;;;;;4.50;1.80;;;25.10;1.00;;;;;;5031398;28;20572;-78
2022/08/01 10:39:52;;;;;;;4.20;1.10;;;25.50;1.00;;;;;;5033624;28;20763;-69
2022/08/01 10:42:18;;;;;;;5.50;1.57;;;25.70;1.00;;;;;;5033113;28;20402;-73
2022/08/01 10:44:47;;;;;;;3.03;1.10;;;25.60;99.90;;;;;;5032148;28;20752;-77
2022/08/01 10:47:17;;;;;;;3.10;1.47;;;25.00;99.90;;;;;;5032416;28;20430;-76
2022/08/01 10:49:50;;;;;;;2.80;1.50;;;25.00;99.90;;;;;;5032721;28;20449;-78
2022/08/01 10:52:17;;;;;;;2.07;1.43;;;25.20;99.90;;;;;;5033316;28;20403;-77
2022/08/01 10:54:44;;;;;;;8.30;1.80;;;25.70;99.90;;;;;;5032027;28;20497;-70
2022/08/01 10:57:11;;;;;;;11.30;2.90;;;26.00;1.00;;;;;;5032216;28;20464;-71
2022/08/01 10:59:48;;;;;;;4.83;1.03;;;26.30;1.00;;;;;;5033365;28;20407;-70
2022/08/01 11:02:27;;;;;;;4.60;1.63;;;26.50;99.90;;;;;;5033112;28;20501;-71
2022/08/01 11:05:01;;;;;;;5.67;2.53;;;26.80;99.90;;;;;;5032990;28;20410;-70
2022/08/01 11:07:45;;;;;;;8.43;1.20;;;26.70;99.90;;;;;;5032047;28;20477;-77
2022/08/01 11:10:34;;;;;;;5.30;1.70;;;27.00;99.90;;;;;;5033044;28;20453;-77
2022/08/01 11:13:03;;;;;;;4.77;1.37;;;26.90;99.90;;;;;;5033022;28;20431;-70
2022/08/01 11:15:29;;;;;;;3.87;1.27;;;26.70;99.90;;;;;;5033003;28;20417;-71
2022/08/01 11:17:55;;;;;;;2.83;1.30;;;26.90;99.90;;;;;;5032054;28;20914;-70
2022/08/01 11:20:24;;;;;;;9.30;2.93;;;27.20;99.90;;;;;;5032412;28;20387;-77
2022/08/01 11:25:47;;;;;;;2.97;1.70;;;27.80;99.90;;;;;;5033013;28;20402;-77
2022/08/01 11:28:16;;;;;;;3.15;1.50;;;28.00;99.90;;;;;;5028237;28;20480;-71
2022/08/01 11:30:46;;;;;;;4.13;1.47;;;28.40;99.90;;;;;;5031622;28;20795;-71
2022/08/01 11:33:13;;;;;;;3.73;1.50;;;28.60;99.90;;;;;;5032842;28;20406;-76
2022/08/01 11:36:20;;;;;;;3.73;1.30;;;28.90;99.90;;;;;;5032876;28;20871;-71
2022/08/01 11:38:48;;;;;;;4.83;1.23;;;29.10;99.90;;;;;;5031280;28;20461;-77
2022/08/01 11:41:17;;;;;;;2.70;1.10;;;29.40;99.90;;;;;;5032810;28;20763;-70
2022/08/01 11:44:10;;;;;;;6.70;1.43;;;28.80;99.90;;;;;;5031567;28;20843;-78
2022/08/01 11:46:55;;;;;;;4.20;0.90;;;28.90;99.90;;;;;;5034636;28;20406;-76
2022/08/01 11:49:45;;;;;;;3.93;1.13;;;29.30;99.90;;;;;;5036413;28;20961;-71
2022/08/01 11:52:16;;;;;;;6.20;1.73;;;29.70;99.90;;;;;;5033884;28;20420;-71
2022/08/01 11:54:46;;;;;;;4.60;1.13;;;30.10;99.90;;;;;;5035980;28;20886;-72
2022/08/01 11:57:21;;;;;;;5.10;1.63;;;30.30;99.90;;;;;;5035676;28;20430;-76
2022/08/01 11:59:49;;;;;;;5.00;1.97;;;30.50;99.90;;;;;;5034641;28;20421;-78
2022/08/01 12:02:29;;;;;;;2.10;1.03;;;30.40;99.90;;;;;;5036472;28;20444;-71
2022/08/01 12:04:59;;;;;;;4.67;2.17;;;30.40;99.90;;;;;;5036081;28;20460;-76
2022/08/01 12:07:30;;;;;;;2.60;1.23;;;30.70;99.90;;;;;;5035048;28;20905;-76
2022/08/01 12:10:15;;;;;;;5.63;1.10;;;30.70;99.90;;;;;;5036121;28;20453;-77
2022/08/01 12:12:51;;;;;;;2.70;1.23;;;31.30;99.90;;;;;;5036093;28;20942;-74
2022/08/01 12:15:18;;;;;;;1.93;1.73;;;30.90;99.90;;;;;;5035371;28;20448;-77
2022/08/01 12:17:49;;;;;;;5.43;1.37;;;30.80;99.90;;;;;;5034157;28;20533;-80
2022/08/01 12:20:19;;;;;;;1.60;0.90;;;30.90;99.90;;;;;;5034819;28;21117;-75
2022/08/01 12:22:45;;;;;;;5.17;1.60;;;31.10;99.90;;;;;;5035981;28;20413;-78
2022/08/01 12:25:14;;;;;;;3.17;1.37;;;31.30;99.90;;;;;;5036038;28;20410;-75
2022/08/01 12:27:42;;;;;;;5.43;1.30;;;31.10;99.90;;;;;;5034983;28;20510;-78
2022/08/01 12:30:11;;;;;;;1.37;1.00;;;30.10;99.90;;;;;;5034566;28;20895;-77
2022/08/01 12:32:39;;;;;;;3.63;1.17;;;29.50;99.90;;;;;;5035203;28;20398;-76
2022/08/01 12:35:29;;;;;;;2.90;1.10;;;29.30;99.90;;;;;;5035806;28;20883;-78
2022/08/01 12:38:14;;;;;;;4.73;1.30;;;29.40;99.90;;;;;;5032024;28;20434;-77
2022/08/01 12:40:43;;;;;;;8.70;1.47;;;29.80;99.90;;;;;;5036156;28;20744;-78
2022/08/01 12:43:09;;;;;;;3.33;1.10;;;29.60;99.90;;;;;;5035750;28;20767;-77
2022/08/01 12:45:44;;;;;;;2.47;0.93;;;29.40;99.90;;;;;;5035590;28;20449;-75
2022/08/01 12:48:12;;;;;;;2.30;1.07;;;29.90;99.90;;;;;;5034449;28;21177;-75
2022/08/01 12:50:41;;;;;;;1.87;0.90;;;30.20;99.90;;;;;;5035324;28;20425;-77
2022/08/01 12:53:09;;;;;;;3.20;0.90;;;30.50;99.90;;;;;;5035551;28;20395;-76
2022/08/01 12:55:47;;;;;;;4.60;1.20;;;30.60;99.90;;;;;;5035449;28;20882;-79